createdAt,value
2023-06-10T00:01:13.753Z,98998.53
2023-06-10T00:03:40.765Z,98996.94
2023-06-10T00:06:08.146Z,98996.16
2023-06-10T00:08:35.015Z,99001.69
2023-06-10T00:11:01.885Z,98993.84
2023-06-10T00:13:29.617Z,98996.75
2023-06-10T00:15:56.458Z,98993.03
2023-06-10T00:18:23.348Z,98997.72
2023-06-10T00:20:50.163Z,98997.91
2023-06-10T00:23:17.067Z,99002.72
2023-06-10T00:25:43.877Z,99003.25
2023-06-10T00:28:10.849Z,99001.19
2023-06-10T00:30:37.696Z,99000.41
2023-06-10T00:33:04.628Z,99006.38
2023-06-10T00:35:31.548Z,99006.03
2023-06-10T00:38:00.559Z,98998.81
2023-06-10T00:40:27.423Z,99005.44
2023-06-10T00:42:54.296Z,99003.31
2023-06-10T00:45:22.104Z,99010.34
2023-06-10T00:47:49.349Z,99010.34
2023-06-10T00:50:16.323Z,99008.78
2023-06-10T00:52:43.589Z,99008.50
2023-06-10T00:55:10.803Z,99011.53
2023-06-10T00:57:38.162Z,99019.59
2023-06-10T01:00:05.566Z,99015.56
2023-06-10T01:02:34.058Z,99011.03
2023-06-10T01:05:01.628Z,99015.34
2023-06-10T01:07:47.185Z,99022.59
2023-06-10T01:10:25.230Z,99020.25
2023-06-10T01:13:06.823Z,99020.81
2023-06-10T01:15:36.080Z,99027.28
2023-06-10T01:18:09.007Z,99029.41
2023-06-10T01:20:37.871Z,99023.91
2023-06-10T01:23:04.868Z,99027.63
2023-06-10T01:25:32.015Z,99032.41
2023-06-10T01:28:27.820Z,99033.28
2023-06-10T01:31:04.989Z,99031.94
2023-06-10T01:33:36.942Z,99033.19
2023-06-10T01:36:05.179Z,99034.25
2023-06-10T01:38:37.864Z,99033.03
2023-06-10T01:41:04.935Z,99035.94
2023-06-10T01:43:35.252Z,99026.22
2023-06-10T01:46:02.224Z,99029.22
2023-06-10T01:48:30.499Z,99032.75
2023-06-10T01:50:57.421Z,99037.50
2023-06-10T01:53:24.408Z,99030.75
2023-06-10T01:55:51.368Z,99030.66
2023-06-10T01:58:18.422Z,99028.34
2023-06-10T02:00:45.421Z,99026.31
2023-06-10T02:03:12.343Z,99028.94
2023-06-10T02:05:39.410Z,99040.34
2023-06-10T02:08:06.529Z,99030.22
2023-06-10T02:10:33.569Z,99037.16
2023-06-10T02:13:00.591Z,99037.38
2023-06-10T02:15:32.003Z,99044.00
2023-06-10T02:17:59.052Z,99046.63
2023-06-10T02:20:26.062Z,99044.88
2023-06-10T02:22:53.076Z,99043.88
2023-06-10T02:25:19.878Z,99041.34
2023-06-10T02:27:46.717Z,99047.06
2023-06-10T02:30:14.066Z,99040.09
2023-06-10T02:32:41.253Z,99044.84
2023-06-10T02:35:08.497Z,99038.53
2023-06-10T02:37:36.103Z,99038.63
2023-06-10T02:40:03.005Z,99035.97
2023-06-10T02:42:29.961Z,99034.53
2023-06-10T02:44:57.313Z,99032.22
2023-06-10T02:47:35.641Z,99025.47
2023-06-10T02:50:02.660Z,99034.84
2023-06-10T02:52:31.965Z,99038.03
2023-06-10T02:54:58.891Z,99046.69
2023-06-10T02:57:25.931Z,99040.78
2023-06-10T02:59:53.047Z,99039.91
2023-06-10T03:02:20.096Z,99043.75
2023-06-10T03:04:51.396Z,99045.66
2023-06-10T03:07:19.368Z,99042.13
2023-06-10T03:09:47.615Z,99044.09
2023-06-10T03:12:15.669Z,99051.25
2023-06-10T03:14:46.552Z,99048.50
2023-06-10T03:17:13.498Z,99049.25
2023-06-10T03:19:43.164Z,99054.25
2023-06-10T03:22:12.431Z,99041.19
2023-06-10T03:24:51.545Z,99049.44
2023-06-10T03:27:20.217Z,99040.81
2023-06-10T03:29:51.048Z,99037.50
2023-06-10T03:32:18.853Z,99049.63
2023-06-10T03:34:45.818Z,99034.50
2023-06-10T03:37:14.160Z,99041.00
2023-06-10T03:39:42.106Z,99044.06
2023-06-10T03:42:09.654Z,99051.47
2023-06-10T03:44:36.600Z,99045.56
2023-06-10T03:47:03.899Z,99049.75
2023-06-10T03:49:31.499Z,99053.34
2023-06-10T03:52:02.014Z,99052.34
2023-06-10T03:54:29.958Z,99050.88
2023-06-10T03:56:57.063Z,99055.09
2023-06-10T03:59:23.993Z,99055.97
2023-06-10T04:01:50.994Z,99057.16
2023-06-10T04:04:18.003Z,99057.50
2023-06-10T04:06:45.862Z,99057.00
2023-06-10T04:09:13.139Z,99065.56
2023-06-10T04:11:40.861Z,99063.06
2023-06-10T04:14:08.669Z,99061.19
2023-06-10T04:16:36.690Z,99060.09
2023-06-10T04:19:04.452Z,99061.28
2023-06-10T04:21:31.382Z,99064.59
2023-06-10T04:23:58.496Z,99061.63
2023-06-10T04:26:25.536Z,99067.44
2023-06-10T04:28:53.138Z,99069.75
2023-06-10T04:31:20.338Z,99069.94
2023-06-10T04:33:48.119Z,99067.09
2023-06-10T04:36:16.374Z,99063.34
2023-06-10T04:38:43.319Z,99065.22
2023-06-10T04:41:10.385Z,99061.03
2023-06-10T04:43:37.935Z,99057.59
2023-06-10T04:46:08.702Z,99053.31
2023-06-10T04:48:36.830Z,99050.38
2023-06-10T04:51:05.903Z,99048.16
2023-06-10T04:53:32.937Z,99053.22
2023-06-10T04:55:59.916Z,99060.50
2023-06-10T04:58:26.711Z,99057.16
2023-06-10T05:00:53.490Z,99056.03
2023-06-10T05:03:20.566Z,99062.38
2023-06-10T05:05:47.463Z,99053.13
2023-06-10T05:08:14.316Z,99055.78
2023-06-10T05:10:41.393Z,99060.34
2023-06-10T05:13:08.300Z,99054.25
2023-06-10T05:15:35.126Z,99056.31
2023-06-10T05:18:02.283Z,99052.59
2023-06-10T05:20:29.692Z,99052.34
2023-06-10T05:22:56.546Z,99053.91
2023-06-10T05:25:23.405Z,99053.66
2023-06-10T05:27:50.288Z,99067.88
2023-06-10T05:30:17.085Z,99065.28
2023-06-10T05:32:44.009Z,99069.84
2023-06-10T05:35:11.277Z,99063.06
2023-06-10T05:37:38.436Z,99068.31
2023-06-10T05:40:05.939Z,99061.53
2023-06-10T05:42:32.841Z,99064.53
2023-06-10T05:44:59.624Z,99074.53
2023-06-10T05:47:26.486Z,99075.66
2023-06-10T05:49:53.572Z,99066.50
2023-06-10T05:52:20.511Z,99074.53
2023-06-10T05:54:47.426Z,99076.94
2023-06-10T05:57:14.342Z,99084.50
2023-06-10T05:59:41.316Z,99087.66
2023-06-10T06:02:08.354Z,99084.50
2023-06-10T06:04:35.617Z,99084.13
2023-06-10T06:07:02.590Z,99085.69
2023-06-10T06:09:29.465Z,99082.59
2023-06-10T06:11:56.345Z,99083.19
2023-06-10T06:14:23.498Z,99085.69
2023-06-10T06:16:50.495Z,99084.94
2023-06-10T06:19:17.363Z,99092.91
2023-06-10T06:21:44.221Z,99084.84
2023-06-10T06:24:11.218Z,99086.38
2023-06-10T06:26:38.088Z,99092.47
2023-06-10T06:29:05.039Z,99089.44
2023-06-10T06:31:32.642Z,99090.56
2023-06-10T06:33:59.814Z,99098.84
2023-06-10T06:36:26.679Z,99093.50
2023-06-10T06:38:53.485Z,99096.66
2023-06-10T06:41:22.518Z,99091.78
2023-06-10T06:43:49.510Z,99096.50
2023-06-10T06:46:24.455Z,99101.03
2023-06-10T06:48:51.637Z,99093.06
2023-06-10T06:51:18.609Z,99099.56
2023-06-10T06:53:45.576Z,99096.81
2023-06-10T06:56:15.489Z,99099.06
2023-06-10T06:58:42.446Z,99101.38
2023-06-10T07:01:09.726Z,99105.16
2023-06-10T07:03:36.541Z,99102.91
2023-06-10T07:06:03.533Z,99104.38
2023-06-10T07:08:30.352Z,99121.88
2023-06-10T07:10:57.265Z,99115.09
2023-06-10T07:13:24.075Z,99110.88
2023-06-10T07:15:50.949Z,99111.84
2023-06-10T07:18:17.800Z,99111.69
2023-06-10T07:20:44.731Z,99110.72
2023-06-10T07:23:11.662Z,99111.47
2023-06-10T07:25:38.701Z,99113.84
2023-06-10T07:28:05.604Z,99112.41
2023-06-10T07:30:32.468Z,99112.16
2023-06-10T07:32:59.472Z,99109.56
2023-06-10T07:35:26.275Z,99109.19
2023-06-10T07:37:53.280Z,99110.41
2023-06-10T07:40:20.156Z,99113.22
2023-06-10T07:42:46.971Z,99108.81
2023-06-10T07:45:13.861Z,99106.91
2023-06-10T07:47:40.777Z,99109.28
2023-06-10T07:50:07.978Z,99107.81
2023-06-10T07:52:34.786Z,99111.31
2023-06-10T07:55:01.791Z,99116.31
2023-06-10T07:57:28.684Z,99117.00
2023-06-10T07:59:55.465Z,99116.31
2023-06-10T08:02:24.036Z,99123.09
2023-06-10T08:04:53.559Z,99123.22
2023-06-10T08:07:20.485Z,99122.09
2023-06-10T08:09:47.321Z,99111.19
2023-06-10T08:12:15.262Z,99108.63
2023-06-10T08:14:44.831Z,99117.88
2023-06-10T08:17:12.182Z,99119.06
2023-06-10T08:19:38.973Z,99115.56
2023-06-10T08:22:05.931Z,99122.84
2023-06-10T08:24:32.805Z,99117.88
2023-06-10T08:26:59.694Z,99111.97
2023-06-10T08:29:26.518Z,99111.97
2023-06-10T08:31:53.465Z,99119.19
2023-06-10T08:34:20.369Z,99123.41
2023-06-10T08:36:47.196Z,99119.19
2023-06-10T08:39:14.053Z,99111.97
2023-06-10T08:41:44.991Z,99119.63
2023-06-10T08:44:23.455Z,99121.44
2023-06-10T08:46:52.137Z,99132.16
2023-06-10T08:49:20.346Z,99120.22
2023-06-10T08:51:51.646Z,99127.50
2023-06-10T08:54:28.322Z,99127.94
2023-06-10T08:56:58.197Z,99129.84
2023-06-10T08:59:26.472Z,99118.41
2023-06-10T09:01:54.979Z,99122.31
2023-06-10T09:04:22.190Z,99124.22
2023-06-10T09:06:50.974Z,99126.09
2023-06-10T09:09:19.047Z,99116.91
2023-06-10T09:11:45.864Z,99125.28
2023-06-10T09:14:13.308Z,99124.97
2023-06-10T09:16:41.688Z,99123.63
2023-06-10T09:19:08.770Z,99126.47
2023-06-10T09:21:36.188Z,99119.38
2023-06-10T09:24:03.479Z,99133.06
2023-06-10T09:26:30.729Z,99125.53
2023-06-10T09:29:09.112Z,99130.91
2023-06-10T09:31:37.667Z,99132.59
2023-06-10T09:34:11.495Z,99130.03
2023-06-10T09:36:40.074Z,99129.66
2023-06-10T09:39:15.692Z,99132.84
2023-06-10T09:41:43.224Z,99130.94
2023-06-10T09:44:19.456Z,99126.66
2023-06-10T09:46:47.795Z,99136.13
2023-06-10T09:49:15.109Z,99134.72
2023-06-10T09:51:55.741Z,99128.38
2023-06-10T09:54:23.751Z,99123.22
2023-06-10T09:56:53.135Z,99129.41
2023-06-10T09:59:30.515Z,99115.03
2023-06-10T10:01:57.923Z,99113.81
2023-06-10T10:04:26.278Z,99117.22
2023-06-10T10:06:56.887Z,99107.00
2023-06-10T10:09:23.788Z,99106.28
2023-06-10T10:11:52.026Z,99109.69
2023-06-10T10:14:21.040Z,99107.84
2023-06-10T10:16:50.623Z,99104.53
2023-06-10T10:19:24.507Z,99098.88
2023-06-10T10:21:55.173Z,99095.47
2023-06-10T10:24:24.624Z,99100.50
2023-06-10T10:26:52.196Z,99098.97
2023-06-10T10:29:32.857Z,99099.34
2023-06-10T10:32:01.903Z,99096.28
2023-06-10T10:34:46.071Z,99095.59
2023-06-10T10:37:12.998Z,99099.41
2023-06-10T10:39:39.911Z,99097.16
2023-06-10T10:42:08.278Z,99100.97
2023-06-10T10:44:35.275Z,99090.66
2023-06-10T10:47:04.719Z,99089.56
2023-06-10T10:49:33.367Z,99085.44
2023-06-10T10:52:02.256Z,99085.16
2023-06-10T10:54:30.152Z,99076.50
2023-06-10T10:57:17.273Z,99073.84
2023-06-10T10:59:50.646Z,99069.41
2023-06-10T11:02:33.154Z,99067.94
2023-06-10T11:05:02.090Z,99073.78
2023-06-10T11:07:38.894Z,99069.63
2023-06-10T11:10:10.969Z,99059.25
2023-06-10T11:12:46.910Z,99063.75
2023-06-10T11:15:14.589Z,99059.91
2023-06-10T11:18:20.775Z,99048.78
2023-06-10T11:20:50.680Z,99054.03
2023-06-10T11:23:29.803Z,99046.81
2023-06-10T11:26:16.548Z,99038.72
2023-06-10T11:29:03.325Z,99036.47
2023-06-10T11:31:35.107Z,99036.97
2023-06-10T11:34:06.201Z,99038.56
2023-06-10T11:36:43.956Z,99032.19
2023-06-10T11:39:11.365Z,99036.50
2023-06-10T11:41:40.322Z,99026.31
2023-06-10T11:44:12.253Z,99021.75
2023-06-10T11:46:39.850Z,99024.06
2023-06-10T11:49:07.664Z,99010.31
2023-06-10T11:51:39.995Z,99019.47
2023-06-10T11:54:09.950Z,99023.66
2023-06-10T11:56:37.206Z,99022.47
2023-06-10T11:59:05.924Z,99016.31
2023-06-10T12:01:34.783Z,99012.44
2023-06-10T12:04:04.813Z,99008.59
2023-06-10T12:06:51.006Z,98997.88
2023-06-10T12:09:29.657Z,98996.31
2023-06-10T12:12:00.888Z,99001.72
2023-06-10T12:14:57.667Z,98994.91
2023-06-10T12:17:33.913Z,98991.84
2023-06-10T12:20:06.739Z,98996.44
2023-06-10T12:22:41.229Z,98990.34
2023-06-10T12:25:09.648Z,98991.13
2023-06-10T12:27:37.971Z,98995.34
2023-06-10T12:30:07.287Z,98991.53
2023-06-10T12:32:45.034Z,98994.59
2023-06-10T12:35:14.278Z,98988.47
2023-06-10T12:37:43.470Z,98990.41
2023-06-10T12:40:11.893Z,98983.50
2023-06-10T12:42:39.220Z,98982.72
2023-06-10T12:45:07.334Z,98978.13
2023-06-10T12:47:36.769Z,98973.16
2023-06-10T12:50:04.335Z,98973.53
2023-06-10T12:52:31.608Z,98982.31
2023-06-10T12:54:58.657Z,98976.56
2023-06-10T12:57:25.808Z,98970.06
2023-06-10T12:59:52.752Z,98974.94
2023-06-10T13:02:22.820Z,98979.84
2023-06-10T13:04:49.673Z,98978.28
2023-06-10T13:07:20.140Z,98987.41
2023-06-10T13:09:47.077Z,99009.78
2023-06-10T13:12:16.776Z,99024.13
2023-06-10T13:14:44.057Z,99022.72
2023-06-10T13:17:10.945Z,99019.19
2023-06-10T13:19:38.594Z,99009.91
2023-06-10T13:22:05.461Z,99015.13
2023-06-10T13:24:32.749Z,99019.00
2023-06-10T13:26:59.580Z,99012.44
2023-06-10T13:29:26.395Z,99014.00
2023-06-10T13:31:53.322Z,99007.06
2023-06-10T13:34:20.092Z,99004.84
2023-06-10T13:36:46.894Z,99002.16
2023-06-10T13:39:13.844Z,99003.53
2023-06-10T13:41:42.073Z,98997.97
2023-06-10T13:44:08.951Z,98997.22
2023-06-10T13:46:35.795Z,98991.84
2023-06-10T13:49:02.698Z,99004.44
2023-06-10T13:51:29.511Z,98990.31
2023-06-10T13:53:56.428Z,98990.59
2023-06-10T13:56:23.304Z,98991.34
2023-06-10T13:58:50.148Z,98990.69
2023-06-10T14:01:17.039Z,98989.97
2023-06-10T14:03:43.982Z,98989.88
2023-06-10T14:06:11.138Z,98991.84
2023-06-10T14:08:37.923Z,98989.16
2023-06-10T14:11:04.958Z,98992.53
2023-06-10T14:13:31.781Z,98997.88
2023-06-10T14:15:58.715Z,98988.31
2023-06-10T14:18:25.577Z,98993.66
2023-06-10T14:20:52.397Z,99002.78
2023-06-10T14:23:19.318Z,99000.09
2023-06-10T14:25:48.937Z,98995.94
2023-06-10T14:28:16.887Z,99002.03
2023-06-10T14:30:43.747Z,98998.19
2023-06-10T14:33:10.878Z,98992.78
2023-06-10T14:35:37.717Z,98993.09
2023-06-10T14:38:07.440Z,98994.97
2023-06-10T14:40:35.477Z,98992.31
2023-06-10T14:43:03.222Z,98991.97
2023-06-10T14:45:29.991Z,98992.00
2023-06-10T14:47:56.885Z,98989.75
2023-06-10T14:50:23.882Z,98989.03
2023-06-10T14:52:50.683Z,98995.50
2023-06-10T14:55:17.606Z,98998.59
2023-06-10T14:57:44.378Z,98994.03
2023-06-10T15:00:13.655Z,98985.25
2023-06-10T15:02:40.545Z,98994.03
2023-06-10T15:05:32.390Z,98992.84
2023-06-10T15:07:59.284Z,98987.50
2023-06-10T15:10:26.294Z,98990.47
2023-06-10T15:12:53.062Z,98989.00
2023-06-10T15:15:19.909Z,98978.34
2023-06-10T15:17:46.890Z,98986.41
2023-06-10T15:20:13.788Z,98975.34
2023-06-10T15:22:41.609Z,98980.34
2023-06-10T15:25:29.308Z,98976.59
2023-06-10T15:27:55.605Z,98989.25
2023-06-10T15:30:22.501Z,98994.59
2023-06-10T15:32:49.322Z,98996.97
2023-06-10T15:35:16.251Z,98992.38
2023-06-10T15:37:43.125Z,98999.63
2023-06-10T15:40:10.188Z,99004.91
2023-06-10T15:42:37.028Z,99008.63
2023-06-10T15:45:04.470Z,99033.75
2023-06-10T15:47:31.301Z,99048.56
2023-06-10T15:49:58.223Z,99046.69
2023-06-10T15:52:25.103Z,99048.25
2023-06-10T15:54:51.955Z,99049.78
2023-06-10T15:57:18.885Z,99047.72
2023-06-10T15:59:45.829Z,99036.72
2023-06-10T16:02:12.731Z,99037.72
2023-06-10T16:04:39.693Z,99041.31
2023-06-10T16:07:06.523Z,99036.75
2023-06-10T16:09:33.412Z,99027.75
2023-06-10T16:12:00.430Z,99040.72
2023-06-10T16:14:27.391Z,99050.59
2023-06-10T16:16:54.279Z,99054.66
2023-06-10T16:19:21.115Z,99057.81
2023-06-10T16:21:48.044Z,99065.09
2023-06-10T16:24:14.924Z,99066.13
2023-06-10T16:26:41.951Z,99061.00
2023-06-10T16:29:10.061Z,99063.50
2023-06-10T16:31:37.058Z,99061.31
2023-06-10T16:34:03.920Z,99064.34
2023-06-10T16:36:30.748Z,99061.72
2023-06-10T16:38:57.665Z,99063.50
2023-06-10T16:41:24.600Z,99067.75
2023-06-10T16:43:51.396Z,99061.03
2023-06-10T16:46:18.266Z,99058.31
2023-06-10T16:48:45.822Z,99053.81
2023-06-10T16:51:12.770Z,99054.31
2023-06-10T16:53:39.586Z,99055.84
2023-06-10T16:56:06.471Z,99055.22
2023-06-10T16:58:33.376Z,99054.94
2023-06-10T17:01:08.558Z,99057.88
2023-06-10T17:03:36.284Z,99055.16
2023-06-10T17:06:03.255Z,99061.66
2023-06-10T17:08:30.248Z,99055.78
2023-06-10T17:10:57.073Z,99063.06
2023-06-10T17:13:24.620Z,99066.28
2023-06-10T17:15:51.567Z,99075.56
2023-06-10T17:18:18.451Z,99083.53
2023-06-10T17:20:45.377Z,99076.44
2023-06-10T17:23:12.221Z,99089.00
2023-06-10T17:25:39.081Z,99087.34
2023-06-10T17:28:06.852Z,99087.72
2023-06-10T17:30:33.759Z,99092.66
2023-06-10T17:33:00.898Z,99089.81
2023-06-10T17:35:27.801Z,99093.25
2023-06-10T17:37:54.735Z,99092.50
2023-06-10T17:40:21.685Z,99087.94
2023-06-10T17:42:48.503Z,99093.88
2023-06-10T17:45:16.039Z,99094.25
2023-06-10T17:47:42.905Z,99097.75
2023-06-10T17:50:10.129Z,99099.34
2023-06-10T17:52:36.955Z,99107.34
2023-06-10T17:55:04.028Z,99106.50
2023-06-10T17:57:31.013Z,99096.25
2023-06-10T17:59:57.824Z,99105.91
2023-06-10T18:02:24.714Z,99110.00
2023-06-10T18:04:51.568Z,99109.19
2023-06-10T18:07:18.382Z,99109.56
2023-06-10T18:09:45.215Z,99108.88
2023-06-10T18:12:12.306Z,99105.78
2023-06-10T18:14:39.310Z,99105.56
2023-06-10T18:17:06.316Z,99115.19
2023-06-10T18:19:33.277Z,99109.94
2023-06-10T18:22:00.244Z,99116.03
2023-06-10T18:24:27.302Z,99111.47
2023-06-10T18:26:54.232Z,99110.69
2023-06-10T18:29:21.100Z,99113.34
2023-06-10T18:31:48.042Z,99114.16
2023-06-10T18:34:15.009Z,99113.28
2023-06-10T18:36:41.891Z,99112.53
2023-06-10T18:39:08.892Z,99109.84
2023-06-10T18:41:35.829Z,99117.84
2023-06-10T18:44:02.685Z,99122.28
2023-06-10T18:46:29.711Z,99122.38
2023-06-10T18:48:56.608Z,99118.53
2023-06-10T18:51:23.701Z,99125.38
2023-06-10T18:53:50.691Z,99124.09
2023-06-10T18:56:17.637Z,99126.00
2023-06-10T18:58:44.585Z,99129.44
2023-06-10T19:01:11.712Z,99131.59
2023-06-10T19:03:38.811Z,99141.56
2023-06-10T19:06:06.269Z,99138.25
2023-06-10T19:08:33.152Z,99139.81
2023-06-10T19:11:00.216Z,99146.16
2023-06-10T19:13:27.171Z,99139.75
2023-06-10T19:15:54.601Z,99152.59
2023-06-10T19:18:21.458Z,99155.19
2023-06-10T19:20:48.346Z,99154.34
2023-06-10T19:23:15.323Z,99160.03
2023-06-10T19:25:42.296Z,99154.34
2023-06-10T19:28:10.289Z,99155.19
2023-06-10T19:30:37.253Z,99159.81
2023-06-10T19:33:04.263Z,99152.13
2023-06-10T19:35:31.189Z,99148.81
2023-06-10T19:37:58.138Z,99151.56
2023-06-10T19:40:25.064Z,99150.38
2023-06-10T19:42:51.974Z,99154.50
2023-06-10T19:45:19.377Z,99154.06
2023-06-10T19:47:46.549Z,99154.13
2023-06-10T19:50:14.096Z,99150.03
2023-06-10T19:52:40.928Z,99154.50
2023-06-10T19:55:08.388Z,99146.88
2023-06-10T19:57:35.666Z,99151.84
2023-06-10T20:00:04.039Z,99151.00
2023-06-10T20:02:39.837Z,99148.34
2023-06-10T20:05:07.272Z,99152.53
2023-06-10T20:07:34.204Z,99143.41
2023-06-10T20:10:01.759Z,99147.91
2023-06-10T20:12:28.579Z,99154.69
2023-06-10T20:14:55.546Z,99151.59
2023-06-10T20:17:22.568Z,99155.16
2023-06-10T20:19:49.692Z,99152.41
2023-06-10T20:22:16.695Z,99158.41
2023-06-10T20:24:43.554Z,99157.28
2023-06-10T20:27:10.485Z,99157.13
2023-06-10T20:29:37.442Z,99155.84
2023-06-10T20:32:04.575Z,99156.63
2023-06-10T20:34:31.578Z,99160.22
2023-06-10T20:36:58.434Z,99154.13
2023-06-10T20:39:26.479Z,99156.41
2023-06-10T20:41:53.471Z,99153.25
2023-06-10T20:44:20.395Z,99155.97
2023-06-10T20:46:47.183Z,99160.13
2023-06-10T20:49:15.374Z,99155.41
2023-06-10T20:51:42.530Z,99152.06
2023-06-10T20:54:10.119Z,99155.91
2023-06-10T20:56:36.986Z,99154.72
2023-06-10T20:59:03.850Z,99156.16
2023-06-10T21:01:30.651Z,99157.28
2023-06-10T21:03:57.718Z,99152.81
2023-06-10T21:06:24.728Z,99158.22
2023-06-10T21:08:51.631Z,99155.03
2023-06-10T21:11:19.068Z,99155.63
2023-06-10T21:13:45.861Z,99159.59
2023-06-10T21:16:12.785Z,99159.25
2023-06-10T21:18:39.658Z,99164.56
2023-06-10T21:21:06.527Z,99163.00
2023-06-10T21:23:33.473Z,99167.16
2023-06-10T21:26:00.492Z,99162.00
2023-06-10T21:28:27.371Z,99165.06
2023-06-10T21:30:54.233Z,99161.84
2023-06-10T21:33:21.146Z,99160.63
2023-06-10T21:35:48.043Z,99168.84
2023-06-10T21:38:14.905Z,99166.03
2023-06-10T21:40:41.701Z,99164.91
2023-06-10T21:43:09.372Z,99162.16
2023-06-10T21:45:36.485Z,99170.13
2023-06-10T21:48:03.473Z,99167.56
2023-06-10T21:50:30.354Z,99159.75
2023-06-10T21:52:59.500Z,99174.31
2023-06-10T21:55:27.986Z,99166.03
2023-06-10T21:57:54.897Z,99169.81
2023-06-10T22:00:21.739Z,99179.63
2023-06-10T22:02:48.884Z,99177.06
2023-06-10T22:05:16.204Z,99178.53
2023-06-10T22:07:43.309Z,99176.38
2023-06-10T22:10:10.688Z,99167.66
2023-06-10T22:12:37.457Z,99167.41
2023-06-10T22:15:04.808Z,99164.75
2023-06-10T22:17:31.724Z,99170.75
2023-06-10T22:19:58.701Z,99165.75
2023-06-10T22:22:25.580Z,99168.09
2023-06-10T22:24:56.954Z,99165.34
2023-06-10T22:27:24.725Z,99161.91
2023-06-10T22:29:51.578Z,99161.56
2023-06-10T22:32:18.460Z,99161.22
2023-06-10T22:34:45.532Z,99161.56
2023-06-10T22:37:12.526Z,99153.84
2023-06-10T22:39:39.457Z,99152.81
2023-06-10T22:42:06.801Z,99152.16
2023-06-10T22:44:33.653Z,99150.66
2023-06-10T22:47:00.538Z,99149.91
2023-06-10T22:49:27.341Z,99151.97
2023-06-10T22:51:54.254Z,99150.84
2023-06-10T22:54:21.021Z,99143.63
2023-06-10T22:56:47.945Z,99145.25
2023-06-10T22:59:14.945Z,99140.13
2023-06-10T23:01:41.992Z,99145.44
2023-06-10T23:04:08.896Z,99141.69
2023-06-10T23:06:35.824Z,99139.34
2023-06-10T23:09:02.837Z,99149.13
2023-06-10T23:11:29.667Z,99147.59
2023-06-10T23:13:56.553Z,99148.00
2023-06-10T23:16:23.515Z,99149.66
2023-06-10T23:18:50.487Z,99141.03
2023-06-10T23:21:17.431Z,99133.06
2023-06-10T23:23:44.307Z,99133.47
2023-06-10T23:26:12.049Z,99139.94
2023-06-10T23:28:38.947Z,99138.41
2023-06-10T23:31:05.756Z,99142.03
2023-06-10T23:33:32.738Z,99138.84
2023-06-10T23:35:59.591Z,99135.75
2023-06-10T23:38:26.524Z,99125.53
2023-06-10T23:40:53.410Z,99136.84
2023-06-10T23:43:20.427Z,99139.78
2023-06-10T23:45:47.278Z,99133.53
2023-06-10T23:48:14.110Z,99136.59
2023-06-10T23:50:41.710Z,99143.00
2023-06-10T23:53:08.512Z,99146.44
2023-06-10T23:55:35.545Z,99135.91
2023-06-10T23:58:03.158Z,99132.16
